Time;durP1;ratioP1;P1;durP2;ratioP2;P2;SDS_P1;SDS_P2;PMS_P1;PMS_P2;Temp;Humidity;BMP_temperature;BMP_pressure;BME280_temperature;BME280_humidity;BME280_pressure;Samples;Min_cycle;Max_cycle;Signal;HPM_P1;HPM_P2
2023/03/21 00:00:30;;;;;;;40.57;20.17;;;;;;;12.01;60.75;94506.47;6213911;23;20205;-79
2023/03/21 00:02:57;;;;;;;41.97;20.50;;;;;;;11.98;61.24;94514.75;6213988;23;20637;-83
2023/03/21 00:05:24;;;;;;;49.43;25.10;;;;;;;11.87;61.61;94513.75;6213945;23;20220;-82
2023/03/21 00:07:51;;;;;;;68.17;28.87;;;;;;;11.85;62.03;94520.22;6213925;23;20167;-83
2023/03/21 00:10:18;;;;;;;61.50;27.60;;;;;;;11.75;62.10;94504.34;6217575;23;20233;-83
2023/03/21 00:12:44;;;;;;;62.33;29.57;;;;;;;11.75;62.60;94507.75;6213185;23;20166;-83
2023/03/21 00:15:13;;;;;;;64.27;29.30;;;;;;;11.77;62.83;94508.34;6212483;23;20170;-82
2023/03/21 00:17:40;;;;;;;66.57;31.23;;;;;;;11.74;63.31;94505.41;6213799;23;20174;-81
2023/03/21 00:20:13;;;;;;;62.50;30.07;;;;;;;11.73;63.80;94503.81;6213411;23;20198;-81
2023/03/21 00:22:41;;;;;;;68.83;29.80;;;;;;;11.75;64.02;94504.34;6186938;23;20166;-81
2023/03/21 00:25:09;;;;;;;58.03;28.13;;;;;;;11.77;64.51;94497.13;6213746;23;20645;-83
2023/03/21 00:27:37;;;;;;;47.00;25.73;;;;;;;11.81;64.13;94499.03;6214806;23;20170;-81
2023/03/21 00:30:05;;;;;;;40.97;19.70;;;;;;;11.63;63.89;94485.34;6214784;23;20228;-83
2023/03/21 00:32:33;;;;;;;39.00;18.10;;;;;;;11.81;63.34;94501.66;6213352;23;20194;-82
2023/03/21 00:35:00;;;;;;;29.47;16.63;;;;;;;11.77;63.13;94505.75;6213377;23;20166;-80
2023/03/21 00:37:27;;;;;;;29.73;17.47;;;;;;;11.67;63.20;94484.66;6213555;23;20528;-81
2023/03/21 00:39:54;;;;;;;30.97;16.73;;;;;;;11.68;62.92;94496.66;6213644;23;20190;-80
2023/03/21 00:42:21;;;;;;;30.53;15.73;;;;;;;11.62;63.21;94496.78;6213614;23;20177;-80
2023/03/21 00:44:48;;;;;;;31.27;16.27;;;;;;;11.53;63.81;94498.94;6213987;23;20560;-82
2023/03/21 00:47:14;;;;;;;30.57;16.67;;;;;;;11.57;63.82;94500.03;6213475;23;20177;-80
2023/03/21 00:49:43;;;;;;;30.23;16.87;;;;;;;11.60;63.95;94494.38;6215911;23;20166;-80
2023/03/21 00:52:10;;;;;;;28.30;15.77;;;;;;;11.59;64.04;94492.03;6213777;23;20630;-81
2023/03/21 00:54:37;;;;;;;30.03;16.50;;;;;;;11.49;64.44;94487.38;6213177;23;20166;-80
2023/03/21 00:57:04;;;;;;;27.63;16.17;;;;;;;11.54;64.72;94481.50;6213466;23;20189;-80
2023/03/21 00:59:31;;;;;;;32.17;15.83;;;;;;;11.49;65.10;94492.59;6212759;23;20248;-80
2023/03/21 01:01:59;;;;;;;29.60;16.43;;;;;;;11.44;65.06;94492.47;6213768;23;20173;-80
2023/03/21 01:04:27;;;;;;;32.17;18.53;;;;;;;11.39;64.42;94485.38;6213760;23;20170;-81
2023/03/21 01:06:55;;;;;;;29.67;17.50;;;;;;;11.35;64.14;94481.63;6213877;23;20281;-81
2023/03/21 01:09:24;;;;;;;37.23;17.83;;;;;;;11.24;64.62;94479.00;6214841;23;20198;-81
2023/03/21 01:11:51;;;;;;;30.77;17.50;;;;;;;11.31;64.56;94483.09;6215001;23;20217;-81
2023/03/21 01:14:21;;;;;;;31.00;16.90;;;;;;;11.21;65.16;94469.06;6200454;23;20158;-80
2023/03/21 01:16:49;;;;;;;30.13;17.00;;;;;;;11.27;65.07;94481.97;6213167;23;20172;-81
2023/03/21 01:19:19;;;;;;;26.57;16.20;;;;;;;11.11;64.99;94484.44;6213439;23;20280;-81
2023/03/21 01:21:45;;;;;;;26.20;15.60;;;;;;;11.06;65.42;94473.91;6213706;23;20204;-81
2023/03/21 01:24:14;;;;;;;31.00;15.93;;;;;;;10.99;65.79;94471.44;6213429;23;20162;-81
2023/03/21 01:26:41;;;;;;;31.30;16.10;;;;;;;11.10;66.01;94483.66;6213669;23;20249;-81
2023/03/21 01:29:08;;;;;;;31.43;16.87;;;;;;;11.11;66.92;94482.63;6214953;23;20170;-83
2023/03/21 01:31:34;;;;;;;34.53;18.07;;;;;;;10.81;66.54;94450.72;6216061;23;20170;-83
2023/03/21 01:34:01;;;;;;;31.30;17.47;;;;;;;10.98;66.58;94476.84;6213828;23;20170;-84
2023/03/21 01:36:28;;;;;;;28.67;17.57;;;;;;;10.95;66.50;94483.28;6214183;23;20208;-83
2023/03/21 01:38:55;;;;;;;29.33;16.93;;;;;;;11.00;67.10;94480.81;6214325;23;20166;-83
2023/03/21 01:41:41;;;;;;;32.50;18.10;;;;;;;11.04;67.91;94484.56;6214765;23;20190;-85
2023/03/21 01:44:14;;;;;;;30.40;17.03;;;;;;;11.06;67.94;94482.50;6214591;23;20161;-84
2023/03/21 01:46:43;;;;;;;35.53;16.83;;;;;;;11.09;68.28;94483.88;6214172;23;20162;-83
2023/03/21 01:49:19;;;;;;;31.63;17.47;;;;;;;11.11;67.37;94487.06;6213887;23;20166;-82
2023/03/21 01:52:00;;;;;;;32.37;15.20;;;;;;;11.03;67.40;94482.16;6215717;23;20158;-87
2023/03/21 01:54:32;;;;;;;32.60;16.07;;;;;;;10.99;67.69;94484.44;6214075;23;20493;-82
2023/03/21 01:57:04;;;;;;;29.90;16.90;;;;;;;10.97;67.31;94477.84;6215125;23;20185;-82
2023/03/21 01:59:36;;;;;;;31.57;16.73;;;;;;;10.87;66.89;94465.44;6213725;23;20190;-82
2023/03/21 02:02:08;;;;;;;26.93;16.50;;;;;;;10.90;67.61;94467.56;6214103;23;20186;-81
2023/03/21 02:04:49;;;;;;;28.07;16.93;;;;;;;10.69;68.17;94442.09;6214899;23;20214;-83
2023/03/21 02:07:22;;;;;;;34.20;16.73;;;;;;;10.85;69.20;94477.06;6219270;23;20174;-82
2023/03/21 02:09:50;;;;;;;25.03;15.80;;;;;;;10.75;69.05;94468.00;6225481;23;20225;-80
2023/03/21 02:12:19;;;;;;;26.43;14.93;;;;;;;10.73;68.95;94466.66;6225668;23;20178;-81
2023/03/21 02:14:48;;;;;;;24.53;14.30;;;;;;;10.62;69.25;94465.59;6226026;23;20180;-84
2023/03/21 02:17:21;;;;;;;25.63;14.43;;;;;;;10.53;70.85;94464.34;6226367;23;20228;-84
2023/03/21 02:20:24;;;;;;;25.37;15.00;;;;;;;10.56;71.19;94456.06;6225521;23;20169;-81
2023/03/21 02:23:25;;;;;;;22.27;13.27;;;;;;;10.54;70.95;94459.91;6221796;23;20158;-83
2023/03/21 02:26:19;;;;;;;33.43;15.40;;;;;;;10.54;70.49;94457.31;6214945;23;20150;-84
2023/03/21 02:28:51;;;;;;;28.17;14.17;;;;;;;10.43;70.86;94464.06;6215495;23;20158;-82
2023/03/21 02:31:40;;;;;;;30.77;15.03;;;;;;;10.38;71.16;94463.16;6217161;23;20154;-81
2023/03/21 02:34:49;;;;;;;24.23;14.10;;;;;;;10.42;71.66;94467.69;6212756;23;20177;-83
2023/03/21 02:37:32;;;;;;;28.90;14.17;;;;;;;10.44;71.42;94467.47;6126736;23;20174;-85
2023/03/21 02:40:09;;;;;;;26.13;13.63;;;;;;;10.38;72.18;94465.75;6212667;23;20155;-84
2023/03/21 02:42:48;;;;;;;30.80;13.83;;;;;;;10.25;72.34;94449.34;6211679;23;20154;-84
2023/03/21 02:45:19;;;;;;;26.83;13.60;;;;;;;10.30;72.31;94461.66;6212537;23;20181;-82
2023/03/21 02:47:50;;;;;;;24.07;13.80;;;;;;;10.24;73.44;94458.13;6212422;23;20281;-83
2023/03/21 02:50:24;;;;;;;28.03;14.77;;;;;;;10.12;74.08;94457.28;6213332;23;20154;-83
2023/03/21 02:52:54;;;;;;;31.20;14.93;;;;;;;10.16;74.61;94460.25;6213021;23;20158;-84
2023/03/21 02:55:25;;;;;;;26.60;15.07;;;;;;;10.21;74.61;94457.78;6213958;23;20162;-85
2023/03/21 02:57:54;;;;;;;25.43;15.23;;;;;;;10.00;75.50;94440.06;6213568;23;20170;-84
2023/03/21 03:00:26;;;;;;;32.27;15.97;;;;;;;10.12;74.99;94454.69;6215818;23;20185;-85
2023/03/21 03:02:53;;;;;;;28.07;15.80;;;;;;;10.04;74.89;94456.78;6213249;23;20151;-84
2023/03/21 03:05:22;;;;;;;32.40;17.57;;;;;;;10.04;75.68;94454.19;6200985;23;20942;-85
2023/03/21 03:08:14;;;;;;;30.33;16.93;;;;;;;10.05;76.47;94461.75;6213223;23;20194;-81
2023/03/21 03:10:53;;;;;;;36.77;18.10;;;;;;;10.09;75.99;94457.72;6213161;23;20261;-81
2023/03/21 03:13:35;;;;;;;30.40;17.97;;;;;;;9.99;76.81;94456.63;6213852;23;20158;-81
2023/03/21 03:16:12;;;;;;;37.37;21.50;;;;;;;9.93;76.64;94452.31;6213594;23;20154;-85
2023/03/21 03:18:48;;;;;;;35.73;21.67;;;;;;;9.93;76.03;94467.88;6214174;23;20237;-85
2023/03/21 03:21:20;;;;;;;44.17;22.30;;;;;;;9.92;76.34;94459.34;6212531;23;20534;-83
2023/03/21 03:23:52;;;;;;;42.37;23.23;;;;;;;9.79;76.24;94469.06;6212936;23;20645;-84
2023/03/21 03:26:23;;;;;;;37.20;22.00;;;;;;;9.61;76.78;94447.28;6212217;23;20162;-84
2023/03/21 03:28:53;;;;;;;34.20;20.97;;;;;;;9.74;76.85;94453.34;6212495;23;20166;-84
2023/03/21 03:31:25;;;;;;;38.43;21.63;;;;;;;9.65;77.22;94455.44;6212230;23;20634;-84
2023/03/21 03:33:55;;;;;;;42.70;22.73;;;;;;;9.49;78.08;94456.84;6214889;23;20181;-83
2023/03/21 03:36:27;;;;;;;33.83;20.97;;;;;;;9.54;78.46;94463.94;6212035;23;20170;-83
2023/03/21 03:38:57;;;;;;;36.40;20.87;;;;;;;9.43;79.12;94451.72;6212668;23;20244;-83
2023/03/21 03:41:26;;;;;;;44.47;22.80;;;;;;;9.48;79.28;94465.63;6213105;23;20194;-83
2023/03/21 03:43:56;;;;;;;38.23;21.03;;;;;;;9.54;79.38;94462.16;6213177;23;20178;-84
2023/03/21 03:46:29;;;;;;;42.63;22.10;;;;;;;9.53;79.70;94462.34;6213078;23;20166;-83
2023/03/21 03:49:01;;;;;;;36.00;20.67;;;;;;;9.41;80.89;94464.88;6212708;23;20197;-84
2023/03/21 03:51:33;;;;;;;39.10;22.47;;;;;;;9.34;80.31;94453.00;6214540;23;20217;-86
2023/03/21 03:54:06;;;;;;;38.17;17.70;;;;;;;9.27;78.75;94455.63;6212578;23;20166;-85
2023/03/21 03:56:33;;;;;;;35.47;15.63;;;;;;;9.20;78.96;94464.50;6212082;23;20238;-83
2023/03/21 03:59:03;;;;;;;30.90;15.60;;;;;;;9.10;79.00;94458.00;6211654;23;20198;-84
2023/03/21 04:01:30;;;;;;;34.17;17.80;;;;;;;9.15;79.53;94459.94;6210433;23;20190;-84
2023/03/21 04:03:57;;;;;;;33.47;19.13;;;;;;;9.12;79.69;94455.97;6211734;23;20169;-84
2023/03/21 04:06:23;;;;;;;49.00;20.77;;;;;;;9.21;80.30;94459.09;6212884;23;20166;-85
2023/03/21 04:08:50;;;;;;;38.30;19.50;;;;;;;9.18;80.87;94459.50;6214482;23;20173;-85
2023/03/21 04:11:19;;;;;;;42.00;19.07;;;;;;;9.05;80.71;94436.31;6217195;23;20166;-83
2023/03/21 04:13:45;;;;;;;38.03;19.63;;;;;;;9.19;80.97;94452.53;6214156;23;20173;-82
2023/03/21 04:16:13;;;;;;;46.90;20.10;;;;;;;9.21;80.59;94459.09;6214492;23;20166;-83
2023/03/21 04:18:40;;;;;;;39.73;20.30;;;;;;;9.14;81.29;94448.00;6214110;23;20170;-82
2023/03/21 04:21:09;;;;;;;37.93;19.63;;;;;;;9.18;81.20;94449.13;6214040;23;20256;-82
2023/03/21 04:23:37;;;;;;;37.23;16.77;;;;;;;9.18;80.88;94443.19;6214296;23;20194;-81
2023/03/21 04:26:04;;;;;;;45.50;17.80;;;;;;;9.15;80.97;94446.97;6213960;23;20171;-82
2023/03/21 04:28:35;;;;;;;38.53;15.50;;;;;;;9.15;80.43;94441.03;6213899;23;20167;-82
2023/03/21 04:31:02;;;;;;;36.37;17.50;;;;;;;8.95;80.35;94410.06;6214104;23;20154;-82
2023/03/21 04:33:29;;;;;;;36.67;18.90;;;;;;;8.88;81.29;94415.34;6215528;23;20167;-82
2023/03/21 04:35:57;;;;;;;42.40;19.73;;;;;;;9.07;82.59;94448.06;6214547;23;20246;-83
2023/03/21 04:38:29;;;;;;;46.53;19.63;;;;;;;9.13;81.68;94451.59;6213780;23;20241;-83
2023/03/21 04:40:56;;;;;;;48.27;19.93;;;;;;;9.04;81.94;94451.06;6213470;23;20209;-83
2023/03/21 04:43:23;;;;;;;40.00;19.70;;;;;;;8.97;82.33;94447.75;6215824;23;20158;-83
2023/03/21 04:45:52;;;;;;;44.37;20.33;;;;;;;8.87;83.77;94442.25;6213526;23;20221;-84
2023/03/21 04:48:23;;;;;;;38.97;19.57;;;;;;;8.98;82.80;94456.31;6214285;23;20235;-83
2023/03/21 04:50:50;;;;;;;43.73;19.77;;;;;;;9.01;82.29;94455.88;6213736;23;20158;-83
2023/03/21 04:53:17;;;;;;;33.57;16.97;;;;;;;8.94;82.36;94457.75;6217776;23;20168;-82
2023/03/21 04:55:44;;;;;;;44.77;20.43;;;;;;;9.07;81.54;94455.03;6214324;23;20189;-82
2023/03/21 04:58:10;;;;;;;37.13;20.63;;;;;;;8.91;82.05;94451.19;6213714;23;20166;-82
2023/03/21 05:00:37;;;;;;;40.40;20.03;;;;;;;8.95;82.34;94454.13;6213787;23;20206;-82
2023/03/21 05:03:07;;;;;;;33.97;18.30;;;;;;;9.00;81.58;94462.09;6213435;23;20194;-85
2023/03/21 05:05:36;;;;;;;44.40;19.60;;;;;;;9.00;81.44;94457.66;6214504;23;20189;-84
2023/03/21 05:08:06;;;;;;;34.13;17.20;;;;;;;8.95;80.90;94452.34;6213653;23;20166;-84
2023/03/21 05:10:33;;;;;;;38.33;17.57;;;;;;;9.07;79.59;94463.59;6214215;23;20799;-85
2023/03/21 05:13:00;;;;;;;48.20;19.80;;;;;;;9.10;80.67;94467.56;6215128;23;20162;-84
2023/03/21 05:15:27;;;;;;;45.03;19.33;;;;;;;9.10;80.01;94465.78;6214611;23;20181;-84
2023/03/21 05:17:54;;;;;;;39.37;18.40;;;;;;;9.00;80.37;94462.84;6215378;23;20170;-85
2023/03/21 05:20:22;;;;;;;41.97;20.20;;;;;;;8.90;81.72;94456.59;6219780;23;20237;-82
2023/03/21 05:22:50;;;;;;;37.77;17.73;;;;;;;8.78;81.56;94463.44;6219431;23;20197;-85
2023/03/21 05:25:33;;;;;;;46.20;17.83;;;;;;;8.75;82.14;94466.47;6218188;23;20174;-84
2023/03/21 05:28:01;;;;;;;41.20;18.20;;;;;;;8.63;81.93;94468.94;6214344;23;20162;-84
2023/03/21 05:30:28;;;;;;;53.50;19.53;;;;;;;8.60;82.36;94469.34;6214433;23;20911;-83
2023/03/21 05:32:55;;;;;;;50.97;20.23;;;;;;;8.62;82.98;94469.16;6215583;23;20165;-83
2023/03/21 05:35:23;;;;;;;53.40;21.27;;;;;;;8.64;83.67;94472.31;6214130;23;20166;-83
2023/03/21 05:37:50;;;;;;;48.63;18.30;;;;;;;8.66;82.27;94476.28;6213404;23;20225;-84
2023/03/21 05:40:17;;;;;;;49.50;17.90;;;;;;;8.71;81.94;94473.88;6213996;23;20178;-85
2023/03/21 05:42:45;;;;;;;61.17;19.70;;;;;;;8.74;81.46;94465.69;6213722;23;20713;-84
2023/03/21 05:45:13;;;;;;;39.80;19.20;;;;;;;8.79;81.66;94457.28;6212955;23;20767;-82
2023/03/21 05:47:39;;;;;;;44.07;19.17;;;;;;;8.93;81.80;94464.72;6213355;23;20169;-82
2023/03/21 05:50:07;;;;;;;43.27;18.53;;;;;;;9.02;81.22;94460.06;6213258;23;20182;-81
2023/03/21 05:52:35;;;;;;;46.20;18.40;;;;;;;9.03;82.44;94452.06;6212208;23;20183;-78
2023/03/21 05:55:02;;;;;;;52.67;19.00;;;;;;;9.14;82.93;94455.78;6212588;23;20174;-78
2023/03/21 05:57:29;;;;;;;55.83;20.20;;;;;;;9.26;83.20;94443.69;6212456;23;20170;-79
2023/03/21 05:59:56;;;;;;;49.30;19.90;;;;;;;9.31;81.85;94438.66;6212530;23;20237;-79
2023/03/21 06:02:23;;;;;;;56.33;20.13;;;;;;;9.50;79.97;94445.44;6212634;23;20245;-80
2023/03/21 06:04:50;;;;;;;54.53;18.33;;;;;;;9.56;79.44;94443.78;6212557;23;20513;-79
2023/03/21 06:07:16;;;;;;;53.00;19.63;;;;;;;9.61;79.53;94446.50;6210197;23;20661;-80
2023/03/21 06:09:45;;;;;;;45.70;20.53;;;;;;;9.79;79.04;94445.69;6211751;23;20779;-81
2023/03/21 06:12:13;;;;;;;61.73;20.53;;;;;;;9.84;78.19;94451.81;6213740;23;20502;-79
2023/03/21 06:14:40;;;;;;;57.37;20.53;;;;;;;9.84;78.60;94436.25;6213147;23;20236;-82
2023/03/21 06:17:07;;;;;;;58.73;20.37;;;;;;;9.95;78.21;94439.94;6214669;23;20167;-83
2023/03/21 06:19:34;;;;;;;49.57;20.43;;;;;;;10.07;78.04;94433.00;6217239;23;20166;-82
2023/03/21 06:22:01;;;;;;;53.83;19.23;;;;;;;10.17;77.16;94433.28;6212945;23;20194;-83
2023/03/21 06:24:28;;;;;;;52.30;19.80;;;;;;;10.36;77.43;94437.38;6213118;23;20170;-82
2023/03/21 06:26:56;;;;;;;45.43;19.53;;;;;;;10.43;77.69;94439.91;6212316;23;20177;-82
2023/03/21 06:29:23;;;;;;;50.07;18.87;;;;;;;10.55;77.70;94430.34;6212272;23;20189;-79
2023/03/21 06:31:50;;;;;;;40.27;18.93;;;;;;;10.73;76.38;94428.47;6213147;23;20702;-80
2023/03/21 06:34:16;;;;;;;53.53;18.90;;;;;;;10.84;75.56;94432.06;6212972;23;20170;-80
2023/03/21 06:36:45;;;;;;;47.80;19.33;;;;;;;10.95;74.65;94436.50;6212891;23;20909;-80
2023/03/21 06:39:12;;;;;;;44.33;21.00;;;;;;;11.10;73.64;94434.25;6214072;23;20166;-80
2023/03/21 06:41:39;;;;;;;45.50;21.53;;;;;;;11.22;71.68;94435.03;6212692;23;20276;-80
2023/03/21 06:44:07;;;;;;;47.10;20.63;;;;;;;11.26;71.37;94443.16;6213124;23;20170;-83
2023/03/21 06:46:34;;;;;;;40.10;21.10;;;;;;;11.28;72.05;94449.72;6212662;23;20630;-83
2023/03/21 06:49:01;;;;;;;43.00;23.60;;;;;;;11.40;72.28;94450.50;6212115;23;20166;-82
2023/03/21 06:51:28;;;;;;;46.37;23.03;;;;;;;11.49;71.18;94456.16;6212656;23;20182;-83
2023/03/21 06:53:55;;;;;;;50.37;22.23;;;;;;;11.59;70.59;94453.78;6213409;23;20170;-82
2023/03/21 06:56:21;;;;;;;52.93;24.60;;;;;;;11.72;69.09;94458.75;6214322;23;20177;-83
2023/03/21 06:58:48;;;;;;;47.17;24.63;;;;;;;11.81;69.39;94465.19;6213400;23;20225;-82
2023/03/21 07:01:17;;;;;;;48.53;21.30;;;;;;;11.90;68.96;94458.59;6213428;23;20161;-82
2023/03/21 07:03:43;;;;;;;41.13;20.37;;;;;;;12.00;67.26;94452.03;6213183;23;20177;-82
2023/03/21 07:06:12;;;;;;;35.73;18.60;;;;;;;12.11;67.31;94462.41;6215151;23;20182;-82
2023/03/21 07:08:40;;;;;;;38.10;18.13;;;;;;;12.19;66.11;94462.03;6213977;23;20166;-83
2023/03/21 07:11:07;;;;;;;40.77;19.07;;;;;;;12.12;64.82;94437.91;6214697;23;20200;-83
2023/03/21 07:13:34;;;;;;;39.97;19.10;;;;;;;12.32;64.93;94459.13;6213321;23;20170;-83
2023/03/21 07:16:01;;;;;;;40.10;19.57;;;;;;;12.44;64.36;94469.50;6213238;23;20170;-84
2023/03/21 07:18:29;;;;;;;40.97;22.30;;;;;;;12.48;62.95;94473.25;6212588;23;20575;-83
2023/03/21 07:20:58;;;;;;;39.57;19.50;;;;;;;12.51;61.65;94462.34;6213283;23;20174;-83
2023/03/21 07:23:27;;;;;;;38.70;19.33;;;;;;;12.51;61.56;94472.78;6216304;23;20190;-83
2023/03/21 07:25:54;;;;;;;37.47;19.10;;;;;;;12.58;60.34;94473.44;6235145;23;20225;-82
2023/03/21 07:28:22;;;;;;;39.87;19.30;;;;;;;12.64;60.81;94469.09;6234040;23;20166;-81
2023/03/21 07:30:53;;;;;;;34.23;17.43;;;;;;;12.66;60.93;94462.63;6234315;23;20197;-82
2023/03/21 07:33:21;;;;;;;42.40;17.67;;;;;;;12.72;60.09;94460.88;6234556;23;20155;-80
2023/03/21 07:35:50;;;;;;;33.93;16.73;;;;;;;12.75;59.58;94463.81;6232885;23;20205;-83
2023/03/21 07:38:17;;;;;;;27.27;14.67;;;;;;;12.83;59.27;94458.22;6217433;23;20174;-82
2023/03/21 07:40:44;;;;;;;28.20;14.03;;;;;;;12.97;59.60;94469.13;6213979;23;20544;-83
2023/03/21 07:43:11;;;;;;;31.63;13.50;;;;;;;13.08;58.77;94479.50;6211828;23;20193;-81
2023/03/21 07:45:38;;;;;;;22.63;12.53;;;;;;;13.16;58.78;94475.69;6215137;23;20554;-81
2023/03/21 07:48:05;;;;;;;33.17;12.40;;;;;;;13.20;58.02;94468.97;6217493;23;20177;-83
2023/03/21 07:50:32;;;;;;;23.70;13.20;;;;;;;13.22;57.73;94466.16;6215130;23;20174;-83
2023/03/21 07:53:01;;;;;;;22.47;13.53;;;;;;;13.37;57.62;94467.16;6218912;23;20177;-82
2023/03/21 07:55:29;;;;;;;28.47;13.70;;;;;;;13.42;57.55;94475.03;6220103;23;20237;-82
2023/03/21 07:57:55;;;;;;;28.60;13.47;;;;;;;13.48;57.70;94470.69;6219282;23;20170;-82
2023/03/21 08:00:23;;;;;;;25.20;13.37;;;;;;;13.54;56.01;94469.72;6212517;23;20194;-83
2023/03/21 08:02:53;;;;;;;27.23;13.80;;;;;;;13.53;56.15;94476.00;6213938;23;21171;-82
2023/03/21 08:05:21;;;;;;;28.70;13.00;;;;;;;13.61;56.45;94472.97;6213601;23;20158;-83
2023/03/21 08:07:48;;;;;;;22.57;12.83;;;;;;;13.69;55.09;94475.16;6213187;23;20166;-83
2023/03/21 08:10:17;;;;;;;23.03;13.57;;;;;;;13.80;54.56;94476.06;6214072;23;20166;-83
2023/03/21 08:12:46;;;;;;;25.60;13.27;;;;;;;13.83;54.34;94470.38;6214306;23;20573;-84
2023/03/21 08:15:14;;;;;;;23.80;12.37;;;;;;;13.99;53.91;94474.78;6214111;23;20174;-83
2023/03/21 08:17:44;;;;;;;26.03;12.53;;;;;;;13.98;53.85;94465.34;6214021;23;20166;-82
2023/03/21 08:20:14;;;;;;;25.43;12.23;;;;;;;14.10;52.82;94471.25;6213800;23;20166;-81
2023/03/21 08:22:42;;;;;;;25.60;12.13;;;;;;;14.11;53.19;94470.97;6214300;23;20175;-80
2023/03/21 08:25:12;;;;;;;30.73;12.87;;;;;;;14.15;52.18;94471.28;6213431;23;20225;-81
2023/03/21 08:27:41;;;;;;;24.70;12.63;;;;;;;14.10;52.57;94464.19;6213969;23;20241;-81
2023/03/21 08:30:11;;;;;;;27.50;13.77;;;;;;;14.19;52.41;94459.34;6213625;23;20170;-81
2023/03/21 08:32:38;;;;;;;23.03;13.40;;;;;;;14.17;52.67;94450.91;6212921;23;20177;-81
2023/03/21 08:35:08;;;;;;;24.20;12.73;;;;;;;14.33;51.99;94457.94;6214843;23;20170;-82
2023/03/21 08:37:35;;;;;;;28.57;13.40;;;;;;;14.36;51.91;94462.69;6213766;23;20194;-80
2023/03/21 08:40:05;;;;;;;25.47;12.60;;;;;;;14.40;51.86;94461.13;6213031;23;20634;-79
2023/03/21 08:42:32;;;;;;;29.43;11.87;;;;;;;14.45;51.57;94457.81;6212478;23;20276;-82
2023/03/21 08:45:00;;;;;;;31.07;12.00;;;;;;;14.50;51.71;94470.91;6213128;23;20626;-80
2023/03/21 08:47:27;;;;;;;22.10;12.17;;;;;;;14.50;51.59;94463.88;6214979;23;20256;-80
2023/03/21 08:49:54;;;;;;;23.80;11.43;;;;;;;14.53;51.67;94462.59;6213834;23;20177;-81
2023/03/21 08:52:21;;;;;;;21.07;11.40;;;;;;;14.58;51.86;94460.81;6214695;23;20162;-80
2023/03/21 08:54:48;;;;;;;20.43;11.63;;;;;;;14.61;51.82;94462.13;6214724;23;20669;-81
2023/03/21 08:57:15;;;;;;;20.17;10.43;;;;;;;14.67;50.87;94464.56;6215173;23;20181;-82
2023/03/21 08:59:42;;;;;;;19.80;11.83;;;;;;;14.73;50.78;94460.16;6213959;23;20198;-82
2023/03/21 09:02:13;;;;;;;18.03;10.80;;;;;;;14.75;50.94;94461.50;6213658;23;20174;-81
2023/03/21 09:04:40;;;;;;;23.63;10.93;;;;;;;14.80;49.72;94449.50;6213931;23;20159;-79
2023/03/21 09:07:09;;;;;;;18.50;11.13;;;;;;;14.81;49.96;94451.06;6214220;23;20166;-79
2023/03/21 09:09:36;;;;;;;21.17;10.73;;;;;;;14.73;50.19;94450.50;6215237;23;20188;-80
2023/03/21 09:12:03;;;;;;;18.47;11.33;;;;;;;14.80;50.03;94441.66;6214779;23;20163;-80
2023/03/21 09:14:30;;;;;;;17.30;10.20;;;;;;;14.80;49.80;94439.84;6214539;23;20508;-80
2023/03/21 09:16:57;;;;;;;15.60;10.33;;;;;;;14.86;49.55;94448.50;6214267;23;20525;-78
2023/03/21 09:19:26;;;;;;;23.77;10.77;;;;;;;14.89;49.45;94437.53;6217409;23;20259;-80
2023/03/21 09:21:54;;;;;;;18.57;10.57;;;;;;;14.94;50.11;94430.53;6214683;23;20209;-80
2023/03/21 09:24:21;;;;;;;19.40;10.73;;;;;;;15.01;49.82;94428.47;6214838;23;20194;-79
2023/03/21 09:26:50;;;;;;;19.87;11.47;;;;;;;15.07;49.07;94424.84;6214992;23;20171;-80
2023/03/21 09:29:17;;;;;;;22.10;10.50;;;;;;;15.16;49.50;94427.78;6213665;23;20202;-81
2023/03/21 09:31:45;;;;;;;17.90;9.57;;;;;;;15.22;49.19;94414.50;6213999;23;20176;-80
2023/03/21 09:34:13;;;;;;;18.50;10.37;;;;;;;15.36;48.91;94417.44;6214527;23;20169;-81
2023/03/21 09:36:42;;;;;;;19.27;10.60;;;;;;;15.45;48.59;94417.75;6214275;23;20171;-81
2023/03/21 09:39:10;;;;;;;18.53;9.10;;;;;;;15.46;48.26;94411.50;6213995;23;20229;-82
2023/03/21 09:41:54;;;;;;;18.87;10.00;;;;;;;15.54;48.23;94409.22;6220640;23;20252;-81
2023/03/21 09:44:31;;;;;;;20.20;10.77;;;;;;;15.62;48.83;94405.31;6214764;23;20178;-81
2023/03/21 09:47:05;;;;;;;26.00;11.30;;;;;;;15.52;49.19;94400.03;6217173;23;20165;-81
2023/03/21 09:49:38;;;;;;;17.37;10.27;;;;;;;15.54;49.13;94397.94;6216269;23;20181;-81
2023/03/21 09:52:12;;;;;;;25.33;9.97;;;;;;;15.55;48.72;94399.53;6222486;23;20177;-81
2023/03/21 09:54:43;;;;;;;19.60;10.37;;;;;;;15.55;48.51;94415.25;6216375;23;20158;-81
2023/03/21 09:57:20;;;;;;;16.70;10.53;;;;;;;15.60;48.52;94405.59;6232972;23;20157;-79
2023/03/21 09:59:51;;;;;;;18.63;10.53;;;;;;;15.60;48.40;94397.72;6232969;23;20201;-80
2023/03/21 10:02:37;;;;;;;16.60;10.23;;;;;;;15.62;48.70;94395.63;6230973;23;20189;-80
2023/03/21 10:05:16;;;;;;;24.13;10.57;;;;;;;15.73;48.63;94393.81;6215658;23;20178;-81
2023/03/21 10:07:53;;;;;;;19.03;10.63;;;;;;;15.88;48.12;94392.06;6230093;23;20162;-79
2023/03/21 10:10:25;;;;;;;20.57;10.30;;;;;;;16.05;47.42;94393.69;6232832;23;20158;-80
2023/03/21 10:12:53;;;;;;;27.00;11.03;;;;;;;16.21;46.41;94383.00;6232989;23;20215;-81
2023/03/21 10:15:24;;;;;;;17.80;10.77;;;;;;;16.49;45.92;94389.59;6229725;23;20175;-82
2023/03/21 10:17:58;;;;;;;16.40;10.97;;;;;;;16.74;45.64;94371.25;6222570;23;20166;-81
2023/03/21 10:20:27;;;;;;;28.47;10.93;;;;;;;17.18;45.18;94373.34;6215917;23;20237;-81
2023/03/21 10:22:56;;;;;;;20.73;11.47;;;;;;;17.61;43.66;94379.81;6232623;23;20190;-81
2023/03/21 10:25:30;;;;;;;19.80;11.90;;;;;;;18.01;43.01;94369.94;6228122;23;20177;-81
2023/03/21 10:27:57;;;;;;;20.80;11.15;;;;;;;18.42;42.30;94381.03;6218489;23;20162;-81
2023/03/21 10:30:35;;;;;;;17.73;11.57;;;;;;;18.96;40.64;94388.06;6215623;23;20170;-81
2023/03/21 10:33:04;;;;;;;15.30;11.07;;;;;;;19.26;39.94;94385.94;6187888;23;20177;-80
2023/03/21 10:35:32;;;;;;;22.25;11.80;;;;;;;19.51;39.46;94384.16;6215171;23;20560;-81
2023/03/21 10:38:01;;;;;;;21.02;12.40;;;;;;;19.62;38.88;94382.97;6214445;23;20166;-81
2023/03/21 10:40:28;;;;;;;20.95;11.23;;;;;;;19.42;37.84;94370.78;6214378;23;20177;-82
2023/03/21 10:42:56;;;;;;;22.13;10.73;;;;;;;19.58;37.83;94395.94;6214273;23;20197;-80
2023/03/21 10:45:24;;;;;;;18.45;11.15;;;;;;;19.50;37.10;94388.63;6214188;23;20177;-81
2023/03/21 10:47:52;;;;;;;19.85;11.10;;;;;;;19.49;36.75;94383.63;6214299;23;20166;-81
2023/03/21 10:50:24;;;;;;;23.35;10.85;;;;;;;19.49;36.64;94394.16;6214062;23;20206;-81
2023/03/21 10:52:59;;;;;;;19.17;11.18;;;;;;;19.38;36.78;94387.41;6214317;23;20237;-81
2023/03/21 10:55:30;;;;;;;17.25;11.10;;;;;;;19.47;36.83;94385.75;6213803;23;20158;-80
2023/03/21 10:57:59;;;;;;;18.38;10.40;;;;;;;19.58;36.54;94381.94;6213921;23;20892;-82
2023/03/21 11:00:30;;;;;;;17.23;10.52;;;;;;;19.71;36.36;94386.56;6213561;23;20712;-81
2023/03/21 11:02:58;;;;;;;16.90;10.00;;;;;;;19.83;36.56;94372.97;6214312;23;20200;-82
2023/03/21 11:05:33;;;;;;;13.52;9.18;;;;;;;19.75;36.03;94364.63;6214288;23;20173;-82
2023/03/21 11:08:05;;;;;;;22.25;9.65;;;;;;;19.66;35.91;94365.50;6214499;23;20158;-81
2023/03/21 11:10:37;;;;;;;17.25;9.00;;;;;;;19.80;35.37;94369.03;6214585;23;20158;-82
2023/03/21 11:13:08;;;;;;;12.57;8.57;;;;;;;19.92;36.09;94353.59;6213819;23;20611;-82
2023/03/21 11:15:41;;;;;;;17.13;8.93;;;;;;;20.16;35.46;94358.81;6213916;23;20159;-82
2023/03/21 11:18:18;;;;;;;16.00;8.55;;;;;;;20.27;36.09;94352.38;6213820;23;20181;-84
2023/03/21 11:20:55;;;;;;;12.35;7.97;;;;;;;20.46;34.63;94345.22;6212413;23;20162;-81
2023/03/21 11:23:27;;;;;;;12.82;7.55;;;;;;;20.66;34.51;94352.06;6212045;23;20181;-81
2023/03/21 11:25:57;;;;;;;16.23;8.13;;;;;;;20.78;34.13;94352.41;6213321;23;20495;-81
2023/03/21 11:28:27;;;;;;;14.73;8.38;;;;;;;20.91;33.97;94351.66;6213477;23;20188;-82
2023/03/21 11:30:56;;;;;;;18.40;8.40;;;;;;;21.06;33.70;94334.78;6214527;23;20178;-81